Na Hoku — WDG7908 — position and weather

sailwx.info

Track history (hours):
 
Tides and Currents Weather Stations Pressure Air Temp Water Temp Dewpoint Dewpoint Depression Visibility Wind Speed Wind Dir Waves Ship Positions

Na Hoku

Owner: Noah Towing LLC, N. Charleston, SC. More information available from US FCC via Universal Licensing System and Coast Guard Vessel Documentation Center.

Last reported at 2017-Oct-16 13:43 UTC. Time now 2017-Oct-17 11:07 UTC.
Position N 32°44' W 079°49'.

Length 32 m; draft 5.5 m.

Type: Tug. MMSI: 367572040.

Date/timePositionNaut miles runAvg speedWind from/ knotsBaromVisibWave heightAir tempDewpointWater temp
2017-Oct-16 13:43N 32°44' W 079°49'1 3.0
2017-Oct-16 13:29N 32°43' W 079°48'23 4.5
2017-Oct-16 08:23N 32°25' W 080°04'3 6.4
2017-Oct-16 07:59N 32°23' W 080°07'27 6.1
2017-Oct-16 03:33N 32°05' W 080°30'0 6.2
2017-Oct-16 03:30N 32°04' W 080°30'3 6.3
2017-Oct-16 03:00N 32°02' W 080°33'3 6.4
2017-Oct-16 02:29N 31°60' W 080°35'4 6.3
2017-Oct-16 01:49N 31°57' W 080°39'2 6.3
2017-Oct-16 01:30N 31°55' W 080°40'10 6.5
2017-Oct-15 23:56N 31°47' W 080°47'8 6.4
2017-Oct-15 22:42N 31°40' W 080°52'  
2017-Oct-12 12:17N 31°03' W 081°17'  
Track history (hours):
 
Tides and Currents Weather Stations Pressure Air Temp Water Temp Dewpoint Dewpoint Depression Visibility Wind Speed Wind Dir Waves Ship Positions

Na Hoku

Owner: Noah Towing LLC, N. Charleston, SC. More information available from US FCC via Universal Licensing System and Coast Guard Vessel Documentation Center.

Last reported at 2017-Oct-16 13:43 UTC. Time now 2017-Oct-17 11:07 UTC.
Position N 32°44' W 079°49'.

Length 32 m; draft 5.5 m.

Type: Tug. MMSI: 367572040.

Date/timePositionNaut miles runAvg speedWind from/ knotsBaromVisibWave heightAir tempDewpointWater temp
2017-Oct-16 13:43N 32°44' W 079°49'1 3.0
2017-Oct-16 13:29N 32°43' W 079°48'23 4.5
2017-Oct-16 08:23N 32°25' W 080°04'3 6.4
2017-Oct-16 07:59N 32°23' W 080°07'27 6.1
2017-Oct-16 03:33N 32°05' W 080°30'0 6.2
2017-Oct-16 03:30N 32°04' W 080°30'3 6.3
2017-Oct-16 03:00N 32°02' W 080°33'3 6.4
2017-Oct-16 02:29N 31°60' W 080°35'4 6.3
2017-Oct-16 01:49N 31°57' W 080°39'2 6.3
2017-Oct-16 01:30N 31°55' W 080°40'10 6.5
2017-Oct-15 23:56N 31°47' W 080°47'8 6.4
2017-Oct-15 22:42N 31°40' W 080°52'  
2017-Oct-12 12:17N 31°03' W 081°17'  

Dump ship's entire track history